North Liberty, Indiana
Current Conditions -  °F | °C
As of 10:54 AM on Monday 22 Dec 2014 (Local Time) from KSBN Reporting Station
Haze Haze  
Wind Chill: 23°   Ceiling: 9000
Heat Index: 32°   Visibility: 6mi
Dew Point: 26°   Wind: 12mph
Humidity: 79%   Direction: 110°ESE
Pressure: 29.94"   Gusts: NA
Location:  41.53°N, 86.43°W
Report Text: KSBN 221554Z 11010KT 6SM HZ SCT049 OVC090 00/M03 A2994 RMK AO2 SLP149 T00001033
Loading
Personal Weather Stations






























Interactive Weather Map New forecast layout! Learn more

10-Day Weather Forecast

Advertisements
Track Severe Weather on mobile